Time;durP1;ratioP1;P1;durP2;ratioP2;P2;SDS_P1;SDS_P2;PMS_P1;PMS_P2;Temp;Humidity;BMP_temperature;BMP_pressure;BME280_temperature;BME280_humidity;BME280_pressure;Samples;Min_cycle;Max_cycle;Signal;HPM_P1;HPM_P2
2021/07/15 00:00:53;;;;;;;0.50;0.30;;;;;;;14.12;100.00;96429.63;4985006;28;20041;-64
2021/07/15 00:03:20;;;;;;;2.03;0.40;;;;;;;14.02;100.00;96424.91;4982078;28;20399;-62
2021/07/15 00:05:48;;;;;;;2.95;0.35;;;;;;;14.05;100.00;96426.88;4980687;28;20054;-65
2021/07/15 00:08:16;;;;;;;0.80;0.30;;;;;;;13.96;100.00;96424.53;4976133;28;20046;-67
2021/07/15 00:10:47;;;;;;;0.40;0.30;;;;;;;13.93;100.00;96417.06;4985041;28;20049;-65
2021/07/15 00:13:16;;;;;;;0.32;0.28;;;;;;;13.99;100.00;96411.94;4979357;28;20045;-64
2021/07/15 00:15:47;;;;;;;1.23;0.70;;;;;;;13.98;100.00;96411.16;4983628;28;20043;-64
2021/07/15 00:18:15;;;;;;;3.03;0.40;;;;;;;13.98;100.00;96413.13;4977708;28;20057;-64
2021/07/15 00:20:46;;;;;;;0.70;0.40;;;;;;;14.00;100.00;96408.78;4985521;28;20039;-64
2021/07/15 00:23:12;;;;;;;1.10;0.30;;;;;;;14.00;100.00;96408.00;4980839;28;20043;-64
2021/07/15 00:25:38;;;;;;;1.88;0.80;;;;;;;13.94;100.00;96399.38;4981137;28;20046;-67
2021/07/15 00:28:05;;;;;;;1.25;0.45;;;;;;;13.99;100.00;96404.47;4977800;28;20518;-62
2021/07/15 00:30:30;;;;;;;2.17;0.40;;;;;;;13.94;100.00;96402.13;4979089;28;20058;-65
2021/07/15 00:32:56;;;;;;;1.05;0.30;;;;;;;13.90;100.00;96401.31;4980647;28;20141;-65
2021/07/15 00:35:21;;;;;;;1.95;0.52;;;;;;;13.93;100.00;96395.81;4982304;28;20622;-64
2021/07/15 00:37:47;;;;;;;2.72;1.02;;;;;;;14.04;100.00;96398.53;4981765;28;20053;-66
2021/07/15 00:40:14;;;;;;;2.38;0.40;;;;;;;14.03;100.00;96397.00;4975604;28;20109;-66
2021/07/15 00:42:40;;;;;;;3.17;0.45;;;;;;;14.02;100.00;96394.63;4980466;28;20047;-65
2021/07/15 00:45:08;;;;;;;0.98;0.30;;;;;;;14.09;100.00;96400.13;4974726;28;20050;-63
2021/07/15 00:47:33;;;;;;;1.50;0.40;;;;;;;14.13;100.00;96395.38;4980027;28;20100;-65
2021/07/15 00:49:59;;;;;;;0.60;0.30;;;;;;;14.09;100.00;96392.63;4980810;28;20038;-65
2021/07/15 00:52:24;;;;;;;1.95;0.65;;;;;;;14.05;100.00;96393.84;4975261;28;20585;-66
2021/07/15 00:54:51;;;;;;;0.93;0.28;;;;;;;14.10;100.00;96402.47;4979773;28;20055;-65
2021/07/15 00:57:17;;;;;;;3.92;0.85;;;;;;;14.04;100.00;96397.75;4978660;28;20046;-65
2021/07/15 00:59:43;;;;;;;1.08;0.40;;;;;;;13.97;100.00;96398.56;4984572;28;20132;-65
2021/07/15 01:02:08;;;;;;;0.30;0.25;;;;;;;13.86;100.00;96395.03;4979607;28;20046;-64
2021/07/15 01:04:34;;;;;;;0.63;0.30;;;;;;;13.76;100.00;96404.91;4983996;28;20047;-66
2021/07/15 01:07:00;;;;;;;1.83;0.40;;;;;;;13.79;100.00;96398.59;4982063;28;20515;-66
2021/07/15 01:09:26;;;;;;;0.75;0.30;;;;;;;13.79;100.00;96392.31;4979125;28;20038;-65
2021/07/15 01:12:00;;;;;;;3.50;0.40;;;;;;;13.83;100.00;96393.88;4983865;28;20135;-66
2021/07/15 01:14:33;;;;;;;0.80;0.40;;;;;;;13.84;100.00;96386.41;4987528;28;20038;-66
2021/07/15 01:17:04;;;;;;;1.88;0.45;;;;;;;13.88;100.00;96385.22;4984785;28;20050;-65
2021/07/15 01:19:48;;;;;;;0.35;0.28;;;;;;;13.91;100.00;96394.66;4966190;28;20113;-66
2021/07/15 01:22:34;;;;;;;1.20;0.30;;;;;;;13.84;100.00;96389.94;4979836;28;20049;-65
2021/07/15 01:25:40;;;;;;;1.95;0.43;;;;;;;13.76;100.00;96386.41;4984704;28;20096;-64
2021/07/15 01:28:41;;;;;;;0.30;0.30;;;;;;;13.83;100.00;96385.63;4992549;28;20112;-65
2021/07/15 01:31:07;;;;;;;0.57;0.40;;;;;;;13.79;100.00;96390.31;4973271;28;20046;-65
2021/07/15 01:33:37;;;;;;;6.85;1.35;;;;;;;13.84;100.00;96380.88;4983151;28;20038;-66
2021/07/15 01:36:09;;;;;;;7.03;1.02;;;;;;;13.89;100.00;96384.03;4982221;28;20078;-62
2021/07/15 01:38:40;;;;;;;0.50;0.32;;;;;;;13.87;100.00;96380.88;4983676;28;20041;-66
2021/07/15 01:41:31;;;;;;;0.35;0.20;;;;;;;13.88;100.00;96387.97;4978835;28;20396;-65
2021/07/15 01:44:06;;;;;;;1.75;0.40;;;;;;;13.75;100.00;96386.78;4976852;28;20080;-65
2021/07/15 01:46:32;;;;;;;0.88;0.45;;;;;;;13.87;100.00;96380.88;4984105;28;20046;-67
2021/07/15 01:48:58;;;;;;;0.73;0.30;;;;;;;13.87;100.00;96380.88;4983499;28;20528;-67
2021/07/15 01:51:24;;;;;;;0.95;0.52;;;;;;;13.97;100.00;96382.03;4979380;28;20085;-66
2021/07/15 01:53:52;;;;;;;1.73;0.50;;;;;;;13.94;100.00;96380.09;4974154;28;20140;-64
2021/07/15 01:56:18;;;;;;;0.52;0.30;;;;;;;13.87;100.00;96383.63;4977092;28;20046;-66
2021/07/15 01:58:46;;;;;;;0.88;0.30;;;;;;;13.81;100.00;96376.16;4981585;28;20042;-67
2021/07/15 02:01:12;;;;;;;4.72;0.60;;;;;;;13.91;100.00;96381.66;4978251;28;20481;-66
2021/07/15 02:03:42;;;;;;;3.90;1.02;;;;;;;13.94;100.00;96377.34;4974928;28;20153;-65
2021/07/15 02:06:09;;;;;;;2.47;0.47;;;;;;;14.00;100.00;96375.75;4978332;28;20046;-65
2021/07/15 02:08:35;;;;;;;9.07;2.22;;;;;;;13.93;100.00;96375.75;4974514;28;20050;-66
2021/07/15 02:11:01;;;;;;;6.03;1.02;;;;;;;13.87;100.00;96371.84;4966460;28;20395;-66
2021/07/15 02:13:27;;;;;;;0.52;0.30;;;;;;;13.83;100.00;96382.06;4973966;28;20108;-66
2021/07/15 02:15:53;;;;;;;1.50;0.40;;;;;;;13.77;100.00;96370.66;4982862;28;20177;-65
2021/07/15 02:18:22;;;;;;;3.78;0.80;;;;;;;13.80;100.00;96367.13;4972621;28;20038;-67
2021/07/15 02:20:51;;;;;;;3.92;1.13;;;;;;;13.73;100.00;96364.41;4984878;28;20555;-66
2021/07/15 02:23:17;;;;;;;2.10;0.70;;;;;;;13.66;100.00;96359.69;4973270;28;20054;-65
2021/07/15 02:25:47;;;;;;;5.60;1.45;;;;;;;13.65;100.00;96357.31;4963155;28;20500;-63
2021/07/15 02:28:14;;;;;;;0.93;0.40;;;;;;;13.60;100.00;96363.25;4971455;28;20057;-65
2021/07/15 02:30:40;;;;;;;3.17;0.63;;;;;;;13.64;100.00;96362.03;4982590;28;20201;-65
2021/07/15 02:33:11;;;;;;;6.82;1.17;;;;;;;13.56;100.00;96355.00;4981582;28;20108;-64
2021/07/15 02:35:46;;;;;;;5.28;1.27;;;;;;;13.64;100.00;96356.53;4990866;28;20034;-65
2021/07/15 02:38:16;;;;;;;4.47;1.42;;;;;;;13.61;100.00;96356.53;4984145;28;20034;-65
2021/07/15 02:40:41;;;;;;;14.00;2.28;;;;;;;13.67;100.00;96357.72;4964351;28;20042;-65
2021/07/15 02:43:07;;;;;;;3.35;0.80;;;;;;;13.64;100.00;96364.00;4972251;28;20125;-63
2021/07/15 02:45:33;;;;;;;2.25;0.70;;;;;;;13.56;100.00;96360.50;4981929;28;20054;-67
2021/07/15 02:47:58;;;;;;;4.78;0.65;;;;;;;13.65;100.00;96346.31;4975771;28;20074;-67
2021/07/15 02:50:25;;;;;;;9.00;2.15;;;;;;;13.65;100.00;96344.38;4973399;28;20072;-66
2021/07/15 02:52:52;;;;;;;3.85;1.02;;;;;;;13.62;100.00;96342.41;4981549;28;20054;-64
2021/07/15 02:55:19;;;;;;;4.95;1.23;;;;;;;13.66;100.00;96345.13;4976528;28;20137;-65
2021/07/15 02:57:48;;;;;;;1.02;0.40;;;;;;;13.53;100.00;96342.78;4980315;28;20061;-64
2021/07/15 03:00:16;;;;;;;3.35;0.80;;;;;;;13.62;100.00;96347.91;4977628;28;20065;-63
2021/07/15 03:03:00;;;;;;;3.30;0.95;;;;;;;13.61;100.00;96342.78;4981978;28;20140;-64
2021/07/15 03:05:46;;;;;;;6.68;1.52;;;;;;;13.65;100.00;96344.38;4975479;28;20046;-65
2021/07/15 03:08:22;;;;;;;5.13;1.00;;;;;;;13.66;100.00;96350.63;4967215;28;20106;-63
2021/07/15 03:10:52;;;;;;;2.80;0.73;;;;;;;13.68;100.00;96343.56;4979918;28;20039;-64
2021/07/15 03:13:18;;;;;;;3.97;1.20;;;;;;;13.63;100.00;96346.72;4975398;28;20624;-64
2021/07/15 03:15:43;;;;;;;3.38;0.80;;;;;;;13.66;100.00;96347.88;4982677;28;20066;-65
2021/07/15 03:18:15;;;;;;;3.40;0.80;;;;;;;13.61;100.00;96338.06;4973310;28;20074;-65
2021/07/15 03:20:42;;;;;;;3.17;1.05;;;;;;;13.61;100.00;96332.56;4973729;28;20060;-65
2021/07/15 03:23:13;;;;;;;8.88;1.77;;;;;;;13.59;100.00;96326.66;4978412;28;20455;-64
2021/07/15 03:25:46;;;;;;;1.65;0.55;;;;;;;13.56;100.00;96335.72;4980869;28;20531;-63
2021/07/15 03:28:14;;;;;;;1.05;0.60;;;;;;;13.46;100.00;96334.53;4969827;28;20054;-64
2021/07/15 03:30:39;;;;;;;6.05;1.30;;;;;;;13.46;100.00;96336.53;4980284;28;20089;-64
2021/07/15 03:33:06;;;;;;;2.88;1.08;;;;;;;13.39;100.00;96338.06;4977050;28;20042;-64
2021/07/15 03:35:33;;;;;;;8.48;1.77;;;;;;;13.47;100.00;96340.81;4982273;28;20080;-64
2021/07/15 03:37:59;;;;;;;2.83;0.88;;;;;;;13.46;100.00;96345.56;4974578;28;20050;-63
2021/07/15 03:40:29;;;;;;;3.85;0.93;;;;;;;13.43;100.00;96342.81;4973726;28;20081;-64
2021/07/15 03:42:56;;;;;;;5.78;1.50;;;;;;;13.42;100.00;96344.78;4972172;28;20042;-63
2021/07/15 03:45:23;;;;;;;1.80;0.95;;;;;;;13.37;100.00;96339.66;4956872;28;20536;-64
2021/07/15 03:47:52;;;;;;;6.18;1.27;;;;;;;13.47;100.00;96346.31;4973495;28;20042;-63
2021/07/15 03:50:45;;;;;;;7.33;2.10;;;;;;;13.52;100.00;96345.94;4951576;28;20499;-62
2021/07/15 03:53:11;;;;;;;6.55;1.20;;;;;;;13.55;100.00;96345.94;4969621;28;20108;-63
2021/07/15 03:55:40;;;;;;;12.65;2.17;;;;;;;13.52;100.00;96345.94;4981343;28;20068;-64
2021/07/15 03:58:09;;;;;;;4.32;1.23;;;;;;;13.50;100.00;96345.53;4969178;28;20085;-62
2021/07/15 04:00:37;;;;;;;5.10;0.70;;;;;;;13.47;100.00;96351.81;4963536;28;20050;-64
2021/07/15 04:03:04;;;;;;;1.77;0.40;;;;;;;13.45;100.00;96351.44;4979227;28;20526;-62
2021/07/15 04:05:34;;;;;;;4.75;1.73;;;;;;;13.41;100.00;96353.41;4981785;28;20125;-65
2021/07/15 04:08:01;;;;;;;2.00;0.80;;;;;;;13.38;100.00;96342.03;4975381;28;20057;-64
2021/07/15 04:10:29;;;;;;;7.40;1.50;;;;;;;13.35;100.00;96348.31;4974313;28;20046;-63
2021/07/15 04:12:56;;;;;;;6.22;1.42;;;;;;;13.37;100.00;96342.41;4979900;28;20092;-66
2021/07/15 04:15:47;;;;;;;1.80;0.60;;;;;;;13.39;100.00;96345.56;4973233;28;20453;-66
2021/07/15 04:18:14;;;;;;;1.67;0.73;;;;;;;13.37;100.00;96345.16;4940245;28;20042;-67
2021/07/15 04:20:41;;;;;;;1.75;0.60;;;;;;;13.28;100.00;96342.78;4973724;28;20135;-64
2021/07/15 04:23:07;;;;;;;4.18;2.05;;;;;;;13.24;100.00;96338.47;4973837;28;20049;-64
2021/07/15 04:25:33;;;;;;;0.45;0.30;;;;;;;13.14;100.00;96346.31;4982857;28;20046;-66
2021/07/15 04:28:00;;;;;;;0.30;0.30;;;;;;;13.24;100.00;96353.00;4974516;28;20055;-67
2021/07/15 04:30:26;;;;;;;0.52;0.38;;;;;;;13.27;100.00;96345.91;4973277;28;20050;-66
2021/07/15 04:32:55;;;;;;;0.55;0.40;;;;;;;13.32;100.00;96345.56;4979261;28;20481;-67
2021/07/15 04:35:22;;;;;;;0.68;0.30;;;;;;;13.28;100.00;96345.53;4981576;28;20042;-66
2021/07/15 04:37:48;;;;;;;0.60;0.40;;;;;;;13.25;100.00;96337.28;4976931;28;20053;-66
2021/07/15 04:40:17;;;;;;;0.40;0.40;;;;;;;13.22;100.00;96336.09;4980496;28;20049;-65
2021/07/15 04:42:43;;;;;;;0.55;0.30;;;;;;;13.26;100.00;96356.13;4959870;28;20134;-65
2021/07/15 04:45:10;;;;;;;0.30;0.30;;;;;;;13.18;100.00;96343.53;4980077;28;20061;-65
2021/07/15 04:47:39;;;;;;;0.60;0.30;;;;;;;13.25;100.00;96346.31;4981964;28;20054;-65
2021/07/15 04:50:06;;;;;;;2.78;0.50;;;;;;;13.41;100.00;96354.19;4970313;28;20484;-64
2021/07/15 04:52:34;;;;;;;1.80;0.50;;;;;;;13.45;100.00;96344.00;4973829;28;20054;-62
2021/07/15 04:55:00;;;;;;;0.60;0.30;;;;;;;13.45;100.00;96352.25;4980204;28;20050;-65
2021/07/15 04:57:27;;;;;;;1.48;0.50;;;;;;;13.51;100.00;96349.88;4981509;28;20039;-64
2021/07/15 04:59:52;;;;;;;1.00;0.45;;;;;;;13.55;100.00;96358.91;4987336;28;20045;-66
2021/07/15 05:02:21;;;;;;;0.30;0.30;;;;;;;13.55;100.00;96354.19;4977685;28;20479;-64
2021/07/15 05:04:47;;;;;;;0.30;0.30;;;;;;;13.61;100.00;96351.81;4974986;28;20047;-64
2021/07/15 05:07:12;;;;;;;1.70;0.80;;;;;;;13.67;100.00;96358.50;4961478;28;20112;-65
2021/07/15 05:09:37;;;;;;;0.57;0.50;;;;;;;13.65;100.00;96349.88;4975435;28;20058;-65
2021/07/15 05:12:03;;;;;;;1.38;0.70;;;;;;;13.74;100.00;96350.25;4973465;28;20050;-62
2021/07/15 05:14:30;;;;;;;0.52;0.32;;;;;;;13.67;100.00;96346.72;4980495;28;20096;-65
2021/07/15 05:16:58;;;;;;;5.57;0.85;;;;;;;13.64;100.00;96351.03;4988456;28;20050;-64
2021/07/15 05:19:23;;;;;;;4.07;0.98;;;;;;;13.66;100.00;96350.63;4946799;28;20054;-65
2021/07/15 05:21:49;;;;;;;2.42;0.90;;;;;;;13.60;100.00;96353.00;4975874;28;20042;-66
2021/07/15 05:24:14;;;;;;;4.70;0.70;;;;;;;13.65;100.00;96351.81;4968882;28;20051;-66
2021/07/15 05:26:40;;;;;;;1.60;0.82;;;;;;;13.70;100.00;96354.16;4960951;28;20416;-65
2021/07/15 05:29:05;;;;;;;2.67;1.00;;;;;;;13.84;100.00;96351.38;4972139;28;20084;-65
2021/07/15 05:31:30;;;;;;;4.35;1.40;;;;;;;13.84;100.00;96347.84;4980792;28;20055;-66
2021/07/15 05:33:56;;;;;;;0.50;0.45;;;;;;;13.77;100.00;96343.94;4984945;28;20381;-64
2021/07/15 05:36:22;;;;;;;5.95;1.52;;;;;;;13.73;100.00;96348.66;4978810;28;20058;-66
2021/07/15 05:38:47;;;;;;;1.27;0.55;;;;;;;13.73;100.00;96345.91;4983293;28;20154;-66
2021/07/15 05:41:13;;;;;;;0.70;0.40;;;;;;;13.62;100.00;96336.88;4977405;28;20062;-65
2021/07/15 05:43:38;;;;;;;3.08;0.90;;;;;;;13.64;100.00;96340.03;4981729;28;20046;-63
2021/07/15 05:46:04;;;;;;;1.05;0.40;;;;;;;13.58;100.00;96330.63;4976678;28;20057;-62
2021/07/15 05:48:30;;;;;;;2.60;0.68;;;;;;;13.61;100.00;96329.81;4982437;28;20748;-66
2021/07/15 05:50:56;;;;;;;4.85;0.82;;;;;;;13.61;100.00;96329.03;4984068;28;20050;-64
2021/07/15 05:53:21;;;;;;;3.55;0.77;;;;;;;13.64;100.00;96339.25;4981048;28;22182;-66
2021/07/15 05:55:47;;;;;;;2.47;1.17;;;;;;;13.64;100.00;96340.03;4995579;28;20114;-66
2021/07/15 05:58:12;;;;;;;3.47;0.95;;;;;;;13.68;100.00;96332.53;4980248;28;20106;-65
2021/07/15 06:00:38;;;;;;;3.00;0.50;;;;;;;13.69;100.00;96328.63;4978124;28;20052;-65
2021/07/15 06:03:03;;;;;;;0.40;0.30;;;;;;;13.71;100.00;96326.25;4961935;28;20053;-63
2021/07/15 06:05:30;;;;;;;1.95;1.05;;;;;;;13.84;100.00;96328.59;4981302;28;20065;-65
2021/07/15 06:07:59;;;;;;;1.80;0.68;;;;;;;13.90;100.00;96321.47;4976688;28;20046;-65
2021/07/15 06:10:25;;;;;;;0.95;0.50;;;;;;;13.93;100.00;96326.22;4957763;28;20074;-65
2021/07/15 06:12:51;;;;;;;1.40;0.50;;;;;;;14.02;100.00;96326.56;4978461;28;20073;-65
2021/07/15 06:15:16;;;;;;;2.80;0.50;;;;;;;14.02;99.71;96328.53;4975756;28;20042;-65
2021/07/15 06:17:43;;;;;;;3.53;1.10;;;;;;;14.06;98.01;96332.06;4975119;28;20030;-64
2021/07/15 06:20:12;;;;;;;1.85;0.55;;;;;;;14.16;96.72;96328.50;4970418;28;20484;-66
2021/07/15 06:22:39;;;;;;;5.22;0.70;;;;;;;14.10;96.90;96330.88;4983950;28;20034;-64
2021/07/15 06:25:06;;;;;;;3.92;0.80;;;;;;;14.15;96.90;96338.72;4976409;28;20053;-63
2021/07/15 06:27:31;;;;;;;1.95;0.30;;;;;;;14.19;96.81;96346.97;4978907;28;20050;-65
2021/07/15 06:29:57;;;;;;;2.47;0.70;;;;;;;14.24;96.15;96340.25;4971935;28;20526;-65
2021/07/15 06:32:22;;;;;;;3.85;0.90;;;;;;;14.26;97.12;96326.88;4968111;28;20583;-65
2021/07/15 06:34:48;;;;;;;1.52;0.47;;;;;;;14.33;97.84;96333.16;4982441;28;20050;-65
2021/07/15 06:37:13;;;;;;;2.83;0.30;;;;;;;14.34;96.41;96336.69;4969390;28;20044;-65
2021/07/15 06:39:39;;;;;;;2.55;0.80;;;;;;;14.36;95.92;96339.03;4983143;28;20042;-66
2021/07/15 06:42:05;;;;;;;1.95;0.60;;;;;;;14.37;94.72;96338.66;4976614;28;20081;-63
2021/07/15 06:44:31;;;;;;;12.27;1.88;;;;;;;14.41;94.82;96333.91;4982398;28;20038;-65
2021/07/15 06:46:56;;;;;;;3.13;0.80;;;;;;;14.33;95.08;96338.66;4978015;28;20143;-64
2021/07/15 06:49:25;;;;;;;1.17;0.40;;;;;;;14.27;95.06;96345.75;4977322;28;20058;-63
2021/07/15 06:51:52;;;;;;;0.60;0.40;;;;;;;14.26;98.25;96344.19;4976961;28;20476;-64
2021/07/15 06:54:18;;;;;;;8.65;1.70;;;;;;;14.42;95.95;96340.19;4979316;28;20050;-65
2021/07/15 06:56:43;;;;;;;6.28;1.20;;;;;;;14.51;94.13;96338.59;4981130;28;20058;-64
2021/07/15 06:59:08;;;;;;;3.80;0.65;;;;;;;14.48;93.94;96333.88;4978288;28;20142;-65
2021/07/15 07:01:34;;;;;;;7.40;2.05;;;;;;;14.51;92.70;96335.03;4985227;28;21226;-65
2021/07/15 07:03:59;;;;;;;3.47;0.57;;;;;;;14.51;92.90;96352.38;4986514;28;20046;-65
2021/07/15 07:06:25;;;;;;;2.55;0.40;;;;;;;14.47;94.89;96342.53;4978942;28;20046;-64
2021/07/15 07:08:50;;;;;;;6.15;2.45;;;;;;;14.62;94.24;96355.09;4981090;28;20042;-63
2021/07/15 07:11:15;;;;;;;9.60;3.50;;;;;;;14.56;96.14;96356.66;4975706;28;20050;-64
2021/07/15 07:13:41;;;;;;;0.93;0.40;;;;;;;14.69;92.82;96354.25;4981619;28;20042;-63
2021/07/15 07:16:06;;;;;;;2.70;0.50;;;;;;;14.74;92.41;96353.84;4975918;28;20042;-65
2021/07/15 07:18:31;;;;;;;1.88;0.40;;;;;;;14.78;94.37;96362.88;4974036;28;20052;-65
2021/07/15 07:20:58;;;;;;;2.08;0.85;;;;;;;14.81;93.11;96364.81;4976086;28;20130;-64
2021/07/15 07:23:24;;;;;;;1.98;0.40;;;;;;;14.80;95.36;96356.94;4972710;28;20661;-65
2021/07/15 07:25:49;;;;;;;1.92;0.30;;;;;;;14.87;94.33;96349.44;4973324;28;20050;-65
2021/07/15 07:28:15;;;;;;;1.10;0.30;;;;;;;15.00;92.57;96340.69;4969136;28;20128;-65
2021/07/15 07:30:40;;;;;;;1.60;0.70;;;;;;;15.01;92.19;96343.03;4982070;28;20042;-65
2021/07/15 07:33:05;;;;;;;4.85;0.50;;;;;;;14.82;96.71;96352.63;4978568;28;20491;-65
2021/07/15 07:35:31;;;;;;;0.63;0.28;;;;;;;14.63;97.73;96353.91;4983692;28;20049;-64
2021/07/15 07:37:57;;;;;;;0.95;0.30;;;;;;;14.71;96.73;96360.94;4981686;28;20413;-64
2021/07/15 07:40:22;;;;;;;0.30;0.30;;;;;;;14.84;96.07;96366.00;4977200;28;20699;-65
2021/07/15 07:42:48;;;;;;;0.85;0.30;;;;;;;14.75;95.04;96363.69;4983942;28;20046;-64
2021/07/15 07:45:15;;;;;;;0.30;0.30;;;;;;;14.72;96.69;96367.25;4969935;28;20142;-63
2021/07/15 07:47:42;;;;;;;4.88;0.52;;;;;;;14.70;98.60;96375.13;4974711;28;20049;-63
2021/07/15 07:50:10;;;;;;;2.78;0.75;;;;;;;14.72;97.95;96376.28;4977325;28;20046;-63
2021/07/15 07:52:36;;;;;;;2.92;0.30;;;;;;;14.58;98.22;96378.34;4978464;28;20462;-64
2021/07/15 07:55:07;;;;;;;4.65;0.60;;;;;;;14.60;99.03;96373.97;4976986;28;20129;-64
2021/07/15 07:57:35;;;;;;;0.43;0.20;;;;;;;14.60;98.93;96375.97;4984217;28;20486;-64
2021/07/15 08:00:02;;;;;;;0.52;0.20;;;;;;;14.71;99.42;96373.94;4976079;28;20042;-64
2021/07/15 08:02:28;;;;;;;0.80;0.30;;;;;;;14.69;99.81;96379.88;4977295;28;20053;-65
2021/07/15 08:04:53;;;;;;;0.40;0.30;;;;;;;14.87;98.07;96371.50;4980220;28;20042;-64
2021/07/15 08:07:18;;;;;;;1.65;0.32;;;;;;;14.88;98.29;96369.53;4975056;28;20097;-65
2021/07/15 08:09:45;;;;;;;0.50;0.30;;;;;;;14.93;98.27;96376.56;4963975;28;20053;-65
2021/07/15 08:12:17;;;;;;;1.27;0.30;;;;;;;14.90;98.58;96378.16;4974574;28;20081;-65
2021/07/15 08:14:46;;;;;;;0.63;0.30;;;;;;;14.94;98.11;96387.19;4975707;28;20053;-63
2021/07/15 08:17:12;;;;;;;0.32;0.32;;;;;;;14.89;98.85;96384.88;4977462;28;20369;-64
2021/07/15 08:19:38;;;;;;;1.65;0.38;;;;;;;14.97;98.82;96391.13;4982729;28;20106;-65
2021/07/15 08:22:03;;;;;;;1.83;0.30;;;;;;;14.95;98.16;96388.78;4979907;28;20137;-63
2021/07/15 08:24:29;;;;;;;1.30;0.30;;;;;;;14.95;99.46;96383.25;4977295;28;20050;-64
2021/07/15 08:26:54;;;;;;;1.10;0.30;;;;;;;15.04;98.65;96386.34;4980047;28;20070;-64
2021/07/15 08:29:20;;;;;;;1.40;0.70;;;;;;;14.91;99.48;96388.81;4958605;28;20184;-64
2021/07/15 08:31:46;;;;;;;2.70;1.15;;;;;;;14.96;99.71;96393.09;4980512;28;20469;-64
2021/07/15 08:34:11;;;;;;;0.85;0.35;;;;;;;14.64;100.00;96391.31;4958943;28;20039;-64
2021/07/15 08:36:37;;;;;;;0.52;0.30;;;;;;;14.63;100.00;96392.47;4982664;28;20046;-64
2021/07/15 08:39:04;;;;;;;0.50;0.32;;;;;;;14.78;100.00;96393.19;4979315;28;20049;-63
2021/07/15 08:41:30;;;;;;;1.42;0.47;;;;;;;14.75;100.00;96394.00;4970630;28;20527;-63
2021/07/15 08:43:55;;;;;;;0.57;0.30;;;;;;;14.81;100.00;96389.63;4976835;28;20042;-64
2021/07/15 08:46:21;;;;;;;0.65;0.40;;;;;;;14.87;100.00;96398.25;4975972;28;20092;-63
2021/07/15 08:48:48;;;;;;;0.85;0.40;;;;;;;15.02;100.00;96399.00;4982040;28;20050;-63
2021/07/15 08:51:14;;;;;;;0.35;0.30;;;;;;;15.17;100.00;96394.94;4963037;28;20057;-63
2021/07/15 08:53:42;;;;;;;1.58;0.30;;;;;;;15.09;100.00;96382.41;4982125;28;20034;-64
2021/07/15 08:58:52;;;;;;;1.38;0.50;;;;;;;14.99;100.00;96397.81;4982223;28;20050;-63
2021/07/15 09:01:17;;;;;;;0.35;0.35;;;;;;;14.98;100.00;96395.44;4974985;28;20039;-64
2021/07/15 09:03:43;;;;;;;1.95;0.60;;;;;;;15.09;100.00;96396.97;4975127;28;20528;-63
2021/07/15 09:06:09;;;;;;;1.02;0.30;;;;;;;15.26;99.61;96391.72;4973807;28;20133;-63
2021/07/15 09:08:34;;;;;;;2.97;0.40;;;;;;;15.46;100.00;96392.75;4981328;28;20455;-63
2021/07/15 09:11:02;;;;;;;1.05;0.60;;;;;;;15.70;100.00;96389.41;4981159;28;20046;-63
2021/07/15 09:13:28;;;;;;;0.80;0.50;;;;;;;15.94;95.79;96393.97;4975833;28;20129;-63
2021/07/15 09:15:54;;;;;;;1.20;0.40;;;;;;;15.66;99.07;96393.00;4980496;28;20177;-63
2021/07/15 09:18:19;;;;;;;1.88;0.60;;;;;;;15.75;98.64;96402.81;4979675;28;20137;-63
2021/07/15 09:20:45;;;;;;;1.05;0.60;;;;;;;15.65;99.33;96391.44;4980331;28;20039;-64
2021/07/15 09:23:13;;;;;;;0.57;0.40;;;;;;;15.64;98.70;96394.59;4973801;28;20034;-63
2021/07/15 09:25:59;;;;;;;2.22;1.10;;;;;;;15.64;98.55;96392.59;4982853;28;20046;-64
2021/07/15 09:28:28;;;;;;;1.38;1.08;;;;;;;15.82;99.94;96400.00;4977021;28;20133;-64
2021/07/15 09:30:53;;;;;;;2.20;0.98;;;;;;;15.96;98.40;96396.31;4983355;28;20116;-64
2021/07/15 09:33:18;;;;;;;0.80;0.63;;;;;;;16.24;96.91;96389.69;4976996;28;20133;-64
2021/07/15 09:35:46;;;;;;;3.13;0.57;;;;;;;16.31;95.80;96399.91;4982935;28;20057;-64
2021/07/15 09:38:19;;;;;;;0.65;0.30;;;;;;;16.32;95.78;96404.25;4977857;28;20073;-64
2021/07/15 09:40:47;;;;;;;0.22;0.22;;;;;;;16.35;95.14;96411.69;4977495;28;20041;-64
2021/07/15 09:43:29;;;;;;;0.63;0.43;;;;;;;16.26;97.53;96406.66;4974327;28;20085;-64
2021/07/15 09:45:56;;;;;;;0.93;0.22;;;;;;;16.23;96.54;96410.25;4985317;28;20050;-64
2021/07/15 09:48:25;;;;;;;0.20;0.20;;;;;;;16.35;95.46;96400.63;4976260;28;20054;-64
2021/07/15 09:50:53;;;;;;;0.70;0.40;;;;;;;16.23;94.86;96408.25;4976658;28;20038;-64
2021/07/15 09:53:30;;;;;;;0.60;0.47;;;;;;;15.85;97.55;96408.25;4979044;28;20046;-63
2021/07/15 09:56:11;;;;;;;2.60;0.50;;;;;;;16.01;96.71;96409.69;4983525;28;20694;-64
2021/07/15 09:58:41;;;;;;;0.40;0.30;;;;;;;15.98;97.23;96407.75;4957173;28;20092;-63
2021/07/15 10:01:09;;;;;;;1.13;0.60;;;;;;;16.10;95.87;96401.69;4974542;28;20466;-63
2021/07/15 10:03:50;;;;;;;0.75;0.40;;;;;;;16.02;96.95;96405.72;4971688;28;20160;-64
2021/07/15 10:06:18;;;;;;;0.63;0.45;;;;;;;16.10;97.73;96414.72;4958009;28;20035;-64
2021/07/15 10:08:45;;;;;;;2.25;0.60;;;;;;;15.99;97.01;96407.34;4972513;28;20052;-64
2021/07/15 10:11:22;;;;;;;3.50;0.60;;;;;;;16.14;96.79;96413.50;4969547;28;20050;-64
2021/07/15 10:14:02;;;;;;;1.50;0.40;;;;;;;16.04;97.86;96408.84;4981917;28;20108;-64
2021/07/15 10:16:32;;;;;;;2.90;0.50;;;;;;;15.99;97.38;96415.63;4970248;28;20400;-64
2021/07/15 10:18:58;;;;;;;2.30;0.85;;;;;;;15.94;98.31;96418.03;4982837;28;20103;-64
2021/07/15 10:21:26;;;;;;;1.20;0.28;;;;;;;15.89;98.28;96413.72;4977165;28;20137;-64
2021/07/15 10:23:52;;;;;;;0.93;0.55;;;;;;;15.80;98.27;96424.47;4969331;28;20047;-64
2021/07/15 10:26:18;;;;;;;0.63;0.50;;;;;;;15.80;99.30;96414.19;4967953;28;20043;-64
2021/07/15 10:28:46;;;;;;;2.28;0.73;;;;;;;15.88;99.63;96411.38;4960174;28;20038;-63
2021/07/15 10:31:13;;;;;;;0.70;0.57;;;;;;;15.76;100.00;96427.25;4978231;28;20072;-63
2021/07/15 10:33:43;;;;;;;1.27;0.77;;;;;;;15.84;100.00;96419.69;4981544;28;20415;-64
2021/07/15 10:36:09;;;;;;;1.88;0.70;;;;;;;15.88;100.00;96431.47;4974022;28;20049;-65
2021/07/15 10:38:40;;;;;;;1.55;1.00;;;;;;;15.96;100.00;96427.47;4978523;28;20058;-64
2021/07/15 10:41:08;;;;;;;1.10;0.55;;;;;;;15.88;100.00;96425.19;4976091;28;20050;-65
2021/07/15 10:43:35;;;;;;;1.42;0.90;;;;;;;15.95;100.00;96414.06;4966875;28;20050;-64
2021/07/15 10:46:02;;;;;;;6.28;1.90;;;;;;;16.25;100.00;96416.16;4978182;28;20039;-65
2021/07/15 10:48:33;;;;;;;1.60;0.80;;;;;;;16.41;100.00;96415.59;4968471;28;20535;-64
2021/07/15 10:51:02;;;;;;;1.48;0.50;;;;;;;16.46;99.66;96417.91;4975427;28;20046;-64
2021/07/15 10:53:29;;;;;;;1.13;0.60;;;;;;;16.69;97.38;96417.25;4978501;28;20150;-64
2021/07/15 10:55:55;;;;;;;2.83;0.47;;;;;;;16.46;98.51;96425.38;4979772;28;20042;-64
2021/07/15 10:58:48;;;;;;;4.82;1.45;;;;;;;16.50;98.67;96415.88;4974051;28;22234;-64
2021/07/15 11:01:36;;;;;;;0.65;0.40;;;;;;;16.50;98.71;96420.63;4973941;28;20403;-64
2021/07/15 11:04:15;;;;;;;0.93;0.50;;;;;;;16.59;97.93;96418.91;4955673;28;20042;-64
2021/07/15 11:06:45;;;;;;;0.75;0.60;;;;;;;16.82;95.01;96426.53;4972890;28;20042;-64
2021/07/15 11:09:28;;;;;;;0.52;0.40;;;;;;;16.68;96.01;96428.72;4968244;28;20050;-64
2021/07/15 11:11:54;;;;;;;2.45;0.80;;;;;;;16.95;95.17;96434.31;4974920;28;20072;-64
2021/07/15 11:14:39;;;;;;;0.80;0.50;;;;;;;16.83;96.74;96430.13;4974181;28;20077;-64
2021/07/15 11:17:54;;;;;;;0.63;0.43;;;;;;;17.10;92.31;96435.69;4991976;28;20050;-64
2021/07/15 11:20:31;;;;;;;2.28;0.47;;;;;;;17.08;95.16;96429.78;4970155;28;20484;-63
2021/07/15 11:23:17;;;;;;;1.23;0.95;;;;;;;17.34;91.92;96436.56;4976208;28;20061;-64
2021/07/15 11:25:42;;;;;;;0.70;0.43;;;;;;;17.33;91.02;96434.97;4975900;28;20403;-64
2021/07/15 11:28:11;;;;;;;1.95;0.52;;;;;;;17.34;91.40;96436.56;4967592;28;20043;-64
2021/07/15 11:30:40;;;;;;;2.35;0.45;;;;;;;17.32;90.36;96430.66;4981442;28;20050;-63
2021/07/15 11:33:35;;;;;;;;;;;;;;;17.08;93.85;96437.31;4958526;28;20051;-64
2021/07/15 11:36:12;;;;;;;0.52;0.40;;;;;;;17.09;90.70;96425.84;4961323;28;19918;-64
2021/07/15 11:38:59;;;;;;;0.90;0.50;;;;;;;17.02;94.12;96437.00;4978208;28;20042;-65